Date,TemperatureHighF,TemperatureAvgF,TemperatureLowF,DewpointHighF,DewpointAvgF,DewpointLowF,HumidityHigh,HumidityAvg,HumidityLow,PressureMaxIn,PressureMinIn,WindSpeedMaxMPH,WindSpeedAvgMPH,GustSpeedMaxMPH,PrecipitationSumIn
2013-5-1,52,44,35,49,40,32,96,85,73,30.39,29.95,16,10,31,0.28
2013-5-2,35,33,32,34,32,31,100,98,94,30.45,30.34,14,9,30,0.67
2013-5-3,34,32,31,33,31,30,100,96,89,30.35,30.02,12,6,25,0.27
2013-5-4,45,38,32,40,36,32,100,93,82,30.10,29.96,10,7,19,0.14
2013-5-5,62,50,38,53,45,37,95,84,69,30.14,30.07,9,6,17,0.00
2013-5-6,73,58,44,54,48,43,95,71,42,30.12,30.05,8,4,14,0.00
2013-5-7,78,66,51,52,47,43,84,53,30,30.10,30.01,8,2,10,0.00
2013-5-8,80,65,53,57,51,44,94,62,33,30.03,29.98,10,3,21,0.06
2013-5-9,63,57,49,60,56,49,100,95,82,29.98,29.88,12,4,21,0.65
2013-5-10,65,51,45,50,46,41,100,85,52,30.06,29.98,10,6,21,0.00
2013-5-11,55,50,42,44,30,14,78,50,21,30.19,29.95,25,11,38,0.00
2013-5-12,60,48,34,27,22,16,62,38,20,30.24,30.12,11,5,20,0.00
2013-5-13,76,60,41,49,35,21,59,40,22,30.14,29.81,13,5,27,0.00
2013-5-14,101,80,61,58,50,38,72,40,14,29.81,29.58,16,8,33,0.00
2013-5-15,80,70,58,49,44,33,65,41,23,29.98,29.75,12,4,18,0.00
2013-5-16,87,73,57,65,49,40,96,47,23,29.95,29.85,8,3,18,0.37
2013-5-17,81,69,60,67,61,56,96,78,52,30.00,29.88,9,3,17,0.01
2013-5-18,86,72,58,64,60,55,91,66,44,30.00,29.84,11,4,24,0.00
2013-5-19,89,73,63,68,63,56,97,76,33,29.88,29.58,14,7,33,0.78
2013-5-20,78,68,60,62,59,56,100,77,48,29.69,29.57,12,6,27,0.07
2013-5-21,68,62,59,59,53,50,90,73,53,29.72,29.56,8,4,20,0.00
2013-5-22,66,57,52,58,54,50,100,91,69,29.90,29.66,10,4,22,0.20
2013-5-23,66,57,51,52,46,35,100,68,36,30.32,29.90,8,5,21,0.02
2013-5-24,71,59,43,48,43,37,79,57,33,30.38,30.21,10,5,22,0.01
2013-5-25,58,52,50,51,49,48,100,92,69,30.28,30.15,14,8,32,0.87
2013-5-26,54,50,47,53,50,46,100,98,91,30.21,29.96,18,6,39,2.53
2013-5-27,66,59,54,64,58,53,100,96,89,30.06,29.76,14,5,31,0.46
2013-5-28,79,67,57,69,63,57,100,87,58,29.83,29.69,8,3,17,0.04
2013-5-29,79,66,59,67,63,59,100,92,65,29.85,29.70,9,4,21,0.70
2013-5-30,74,69,63,67,63,60,96,82,68,29.74,29.58,12,6,26,0.07
2013-5-31,80,69,61,65,62,58,93,78,55,29.70,29.61,11,6,24,0.07